Xin Dan Dong — BPBY — position and weather

sailwx.info

Track history (hours):
 
Tides and Currents Weather Stations Pressure Air Temp Water Temp Dewpoint Dewpoint Depression Visibility Wind Speed Wind Dir Waves Ship Positions

Xin Dan Dong

Last reported at 2017-Oct-20 19:29 UTC. Time now 2017-Oct-20 19:55 UTC.
Position N 21°49' E 113°17'.

Length 263 m; draft 9.2 m.

Type: Cargo ship. MMSI: 413153000.

Date/timePositionNaut miles runAvg speedWind from/ knotsBaromVisibWave heightAir tempDewpointWater temp
2017-Oct-20 19:29N 21°49' E 113°17'0 0.1
2017-Oct-20 18:59N 21°49' E 113°17'0 0.0
2017-Oct-20 18:29N 21°49' E 113°17'0 0.0
2017-Oct-20 17:59N 21°49' E 113°17'0 0.0
2017-Oct-20 17:29N 21°49' E 113°17'0 0.0
2017-Oct-20 16:59N 21°49' E 113°17'0 0.0
2017-Oct-20 16:29N 21°49' E 113°17'0 0.0
2017-Oct-20 15:59N 21°49' E 113°17'0 0.0
2017-Oct-20 15:29N 21°49' E 113°17'0 0.0
2017-Oct-20 14:59N 21°49' E 113°17'4 4.2
2017-Oct-20 13:57N 21°45' E 113°20'5412.6
2017-Oct-20 09:40N 21°52' E 114°18'513.5
2017-Oct-20 09:18N 21°54' E 114°23'413.4
2017-Oct-20 08:59N 21°55' E 114°27'813.6
2017-Oct-20 08:26N 21°58' E 114°35'613.3
2017-Oct-20 08:00N 21°59' E 114°41'913.3
2017-Oct-20 07:19N 22°02' E 114°50'513.3
2017-Oct-20 06:57N 22°04' E 114°55'913.3
2017-Oct-20 06:18N 22°07' E 115°04'713.2
2017-Oct-20 05:48N 22°10' E 115°10'1213.2
2017-Oct-20 04:52N 22°14' E 115°23'18913.6
2017-Oct-19 15:00N 23°57' E 118°15'612.8
2017-Oct-19 14:30N 24°02' E 118°18'612.3
2017-Oct-19 14:00N 24°08' E 118°18'612.9
2017-Oct-19 13:30N 24°15' E 118°17'611.8
2017-Oct-19 13:00N 24°19' E 118°13'511.0
2017-Oct-19 12:30N 24°23' E 118°08'5 9.7
2017-Oct-19 12:00N 24°26' E 118°04'1 2.6
2017-Oct-19 11:29N 24°26' E 118°02'0 0.0
2017-Oct-19 10:59N 24°26' E 118°02'0 0.0
2017-Oct-19 10:26N 24°26' E 118°02'0 0.0
2017-Oct-19 09:59N 24°26' E 118°02'0 0.0
2017-Oct-19 09:29N 24°26' E 118°02'0 0.0
2017-Oct-19 08:59N 24°26' E 118°02'0 0.0
2017-Oct-19 08:29N 24°26' E 118°02'0 0.0
2017-Oct-19 07:59N 24°26' E 118°02'0 0.0
2017-Oct-19 07:29N 24°26' E 118°02'0 0.0
2017-Oct-19 06:59N 24°26' E 118°02'0 0.0
2017-Oct-19 06:29N 24°26' E 118°02'0 0.0
2017-Oct-19 05:59N 24°26' E 118°02'0 0.0
2017-Oct-19 05:29N 24°26' E 118°02'0 0.0
2017-Oct-19 04:59N 24°26' E 118°02'0 0.0
2017-Oct-19 04:29N 24°26' E 118°02'0 0.0
2017-Oct-19 03:59N 24°26' E 118°02'0 0.0
2017-Oct-19 03:29N 24°26' E 118°02'0 0.0
2017-Oct-19 02:59N 24°26' E 118°02'0 0.0
2017-Oct-19 02:30N 24°26' E 118°02'0 0.0
2017-Oct-19 02:00N 24°26' E 118°02'0 0.5
2017-Oct-19 01:30N 24°26' E 118°02'5 9.7
2017-Oct-19 01:00N 24°24' E 118°07'4 8.9
2017-Oct-19 00:30N 24°21' E 118°10'3 6.7
2017-Oct-19 00:00N 24°18' E 118°13'4 7.6
2017-Oct-18 23:30N 24°17' E 118°17'4 9.0
2017-Oct-18 23:00N 24°13' E 118°20'5 9.6
2017-Oct-18 22:30N 24°11' E 118°24'3 6.8
2017-Oct-18 22:01N 24°09' E 118°28'1 1.3
2017-Oct-18 21:30N 24°09' E 118°28'1 1.6
2017-Oct-18 20:54N 24°10' E 118°29'1 1.8
2017-Oct-18 20:22N 24°11' E 118°30'1 2.0
2017-Oct-18 20:00N 24°11' E 118°30'1 2.3
2017-Oct-18 19:30N 24°12' E 118°31'1 2.6
2017-Oct-18 19:00N 24°13' E 118°32'2 2.8
2017-Oct-18 18:25N 24°15' E 118°33'1 3.0
2017-Oct-18 17:57N 24°16' E 118°34'1 3.0
2017-Oct-18 17:30N 24°17' E 118°35'4 7.7
2017-Oct-18 17:01N 24°18' E 118°38'714.4
2017-Oct-18 16:31N 24°21' E 118°46'  
Track history (hours):
 
Tides and Currents Weather Stations Pressure Air Temp Water Temp Dewpoint Dewpoint Depression Visibility Wind Speed Wind Dir Waves Ship Positions

Xin Dan Dong

Last reported at 2017-Oct-20 19:29 UTC. Time now 2017-Oct-20 19:55 UTC.
Position N 21°49' E 113°17'.

Length 263 m; draft 9.2 m.

Type: Cargo ship. MMSI: 413153000.

Date/timePositionNaut miles runAvg speedWind from/ knotsBaromVisibWave heightAir tempDewpointWater temp
2017-Oct-20 19:29N 21°49' E 113°17'0 0.1
2017-Oct-20 18:59N 21°49' E 113°17'0 0.0
2017-Oct-20 18:29N 21°49' E 113°17'0 0.0
2017-Oct-20 17:59N 21°49' E 113°17'0 0.0
2017-Oct-20 17:29N 21°49' E 113°17'0 0.0
2017-Oct-20 16:59N 21°49' E 113°17'0 0.0
2017-Oct-20 16:29N 21°49' E 113°17'0 0.0
2017-Oct-20 15:59N 21°49' E 113°17'0 0.0
2017-Oct-20 15:29N 21°49' E 113°17'0 0.0
2017-Oct-20 14:59N 21°49' E 113°17'4 4.2
2017-Oct-20 13:57N 21°45' E 113°20'5412.6
2017-Oct-20 09:40N 21°52' E 114°18'513.5
2017-Oct-20 09:18N 21°54' E 114°23'413.4
2017-Oct-20 08:59N 21°55' E 114°27'813.6
2017-Oct-20 08:26N 21°58' E 114°35'613.3
2017-Oct-20 08:00N 21°59' E 114°41'913.3
2017-Oct-20 07:19N 22°02' E 114°50'513.3
2017-Oct-20 06:57N 22°04' E 114°55'913.3
2017-Oct-20 06:18N 22°07' E 115°04'713.2
2017-Oct-20 05:48N 22°10' E 115°10'1213.2
2017-Oct-20 04:52N 22°14' E 115°23'18913.6
2017-Oct-19 15:00N 23°57' E 118°15'612.8
2017-Oct-19 14:30N 24°02' E 118°18'612.3
2017-Oct-19 14:00N 24°08' E 118°18'612.9
2017-Oct-19 13:30N 24°15' E 118°17'611.8
2017-Oct-19 13:00N 24°19' E 118°13'511.0
2017-Oct-19 12:30N 24°23' E 118°08'5 9.7
2017-Oct-19 12:00N 24°26' E 118°04'1 2.6
2017-Oct-19 11:29N 24°26' E 118°02'0 0.0
2017-Oct-19 10:59N 24°26' E 118°02'0 0.0
2017-Oct-19 10:26N 24°26' E 118°02'0 0.0
2017-Oct-19 09:59N 24°26' E 118°02'0 0.0
2017-Oct-19 09:29N 24°26' E 118°02'0 0.0
2017-Oct-19 08:59N 24°26' E 118°02'0 0.0
2017-Oct-19 08:29N 24°26' E 118°02'0 0.0
2017-Oct-19 07:59N 24°26' E 118°02'0 0.0
2017-Oct-19 07:29N 24°26' E 118°02'0 0.0
2017-Oct-19 06:59N 24°26' E 118°02'0 0.0
2017-Oct-19 06:29N 24°26' E 118°02'0 0.0
2017-Oct-19 05:59N 24°26' E 118°02'0 0.0
2017-Oct-19 05:29N 24°26' E 118°02'0 0.0
2017-Oct-19 04:59N 24°26' E 118°02'0 0.0
2017-Oct-19 04:29N 24°26' E 118°02'0 0.0
2017-Oct-19 03:59N 24°26' E 118°02'0 0.0
2017-Oct-19 03:29N 24°26' E 118°02'0 0.0
2017-Oct-19 02:59N 24°26' E 118°02'0 0.0
2017-Oct-19 02:30N 24°26' E 118°02'0 0.0
2017-Oct-19 02:00N 24°26' E 118°02'0 0.5
2017-Oct-19 01:30N 24°26' E 118°02'5 9.7
2017-Oct-19 01:00N 24°24' E 118°07'4 8.9
2017-Oct-19 00:30N 24°21' E 118°10'3 6.7
2017-Oct-19 00:00N 24°18' E 118°13'4 7.6
2017-Oct-18 23:30N 24°17' E 118°17'4 9.0
2017-Oct-18 23:00N 24°13' E 118°20'5 9.6
2017-Oct-18 22:30N 24°11' E 118°24'3 6.8
2017-Oct-18 22:01N 24°09' E 118°28'1 1.3
2017-Oct-18 21:30N 24°09' E 118°28'1 1.6
2017-Oct-18 20:54N 24°10' E 118°29'1 1.8
2017-Oct-18 20:22N 24°11' E 118°30'1 2.0
2017-Oct-18 20:00N 24°11' E 118°30'1 2.3
2017-Oct-18 19:30N 24°12' E 118°31'1 2.6
2017-Oct-18 19:00N 24°13' E 118°32'2 2.8
2017-Oct-18 18:25N 24°15' E 118°33'1 3.0
2017-Oct-18 17:57N 24°16' E 118°34'1 3.0
2017-Oct-18 17:30N 24°17' E 118°35'4 7.7
2017-Oct-18 17:01N 24°18' E 118°38'714.4
2017-Oct-18 16:31N 24°21' E 118°46'  

Dump ship's entire track history